Allen Jay, North Carolina
Current Conditions -  °F | °C
As of 12:54 AM on Thursday 29 Jan 2015 (Local Time) from KGSO Reporting Station
Clear Clear  
Wind Chill: -2°   Ceiling: Unl
Heat Index: -2°   Visibility: 10mi
Dew Point: -9°   Wind: 0mph
Humidity: 56%   Direction: NA
Pressure: 30.3"   Gusts: NA
Location:  35.9136°N, 79.9465°W
Report Text: KGSO 290554Z 00000KT 10SM CLR M02/M09 A3030 RMK AO2 SLP265 T10171094 10044 21028 50001
Loading
Personal Weather Stations






























Interactive Weather Map New forecast layout! Learn more

10-Day Weather Forecast

Advertisements
Track Severe Weather on mobile